Time;durP1;ratioP1;P1;durP2;ratioP2;P2;SDS_P1;SDS_P2;PMS_P1;PMS_P2;Temp;Humidity;BMP_temperature;BMP_pressure;BME280_temperature;BME280_humidity;BME280_pressure;Samples;Min_cycle;Max_cycle;Signal;HPM_P1;HPM_P2
2022/04/03 00:01:45;;;;;;;13.02;5.32;;;2.80;99.90;;;;;;5015803;28;20045;-63
2022/04/03 00:04:11;;;;;;;10.77;5.10;;;2.70;99.90;;;;;;5016820;28;20021;-61
2022/04/03 00:06:37;;;;;;;12.27;5.45;;;2.70;99.90;;;;;;5016572;28;20029;-61
2022/04/03 00:09:03;;;;;;;16.15;6.10;;;2.70;99.90;;;;;;5016432;28;20029;-63
2022/04/03 00:11:31;;;;;;;10.15;5.50;;;2.60;99.90;;;;;;5017325;28;20377;-63
2022/04/03 00:13:57;;;;;;;11.35;5.85;;;2.60;99.90;;;;;;5016259;28;20053;-60
2022/04/03 00:16:23;;;;;;;12.77;5.68;;;2.50;99.90;;;;;;5015766;28;20062;-60
2022/04/03 00:18:49;;;;;;;9.93;4.68;;;2.50;99.90;;;;;;5017122;28;20026;-63
2022/04/03 00:21:16;;;;;;;12.65;5.10;;;2.50;99.90;;;;;;5016912;28;20025;-61
2022/04/03 00:23:41;;;;;;;10.70;5.18;;;2.50;99.90;;;;;;5016959;28;20026;-61
2022/04/03 00:26:07;;;;;;;7.65;4.30;;;2.40;99.90;;;;;;5015820;28;20455;-61
2022/04/03 00:28:33;;;;;;;9.90;5.28;;;2.40;99.90;;;;;;5016768;28;20029;-60
2022/04/03 00:30:59;;;;;;;11.07;5.05;;;2.30;99.90;;;;;;5016044;28;20026;-61
2022/04/03 00:33:30;;;;;;;12.63;4.75;;;2.20;99.90;;;;;;5014892;28;20510;-61
2022/04/03 00:35:55;;;;;;;9.60;5.25;;;2.20;99.90;;;;;;4999027;28;20057;-61
2022/04/03 00:38:21;;;;;;;12.80;5.88;;;2.20;99.90;;;;;;4995745;28;20030;-61
2022/04/03 00:40:48;;;;;;;10.35;5.07;;;2.10;99.90;;;;;;4995814;28;20034;-62
2022/04/03 00:43:14;;;;;;;14.43;6.68;;;2.00;99.90;;;;;;4995666;28;20026;-61
2022/04/03 00:45:45;;;;;;;14.43;6.60;;;2.10;99.90;;;;;;4995928;28;20049;-61
2022/04/03 00:48:11;;;;;;;15.70;6.78;;;1.90;99.90;;;;;;4997339;28;20062;-61
2022/04/03 00:50:37;;;;;;;15.65;6.72;;;1.90;99.90;;;;;;4998325;28;20121;-63
2022/04/03 00:53:03;;;;;;;14.95;7.05;;;1.80;99.90;;;;;;5017383;28;20026;-60
2022/04/03 00:55:29;;;;;;;12.65;6.88;;;1.80;99.90;;;;;;5019003;28;20022;-60
2022/04/03 00:58:00;;;;;;;14.65;7.03;;;1.70;99.90;;;;;;5017225;28;20498;-63
2022/04/03 01:00:26;;;;;;;18.92;7.18;;;1.70;99.90;;;;;;5015662;28;20113;-62
2022/04/03 01:02:52;;;;;;;16.60;7.05;;;1.60;99.90;;;;;;5018628;28;20072;-61
2022/04/03 01:05:18;;;;;;;12.23;6.75;;;1.60;99.90;;;;;;5014908;28;20022;-61
2022/04/03 01:07:44;;;;;;;13.98;6.55;;;1.50;99.90;;;;;;5016683;28;20021;-62
2022/04/03 01:10:10;;;;;;;11.65;6.07;;;1.60;99.90;;;;;;5017048;28;20030;-63
2022/04/03 01:12:40;;;;;;;11.07;5.10;;;1.60;99.90;;;;;;5014619;28;20046;-62
2022/04/03 01:15:07;;;;;;;9.45;4.47;;;1.60;99.90;;;;;;5015928;28;20465;-63
2022/04/03 01:17:32;;;;;;;18.58;5.97;;;1.60;99.90;;;;;;5016199;28;20473;-63
2022/04/03 01:19:58;;;;;;;10.23;5.13;;;1.50;99.90;;;;;;5014605;28;20026;-63
2022/04/03 01:22:24;;;;;;;8.05;4.28;;;1.60;99.90;;;;;;5015740;28;20092;-63
2022/04/03 01:24:56;;;;;;;10.30;5.50;;;1.70;99.90;;;;;;5014788;28;20040;-63
2022/04/03 01:27:22;;;;;;;13.68;5.22;;;1.60;99.90;;;;;;5015087;28;20026;-63
2022/04/03 01:29:49;;;;;;;9.40;4.88;;;1.60;99.90;;;;;;5014558;28;20030;-63
2022/04/03 01:32:15;;;;;;;11.40;4.90;;;1.40;99.90;;;;;;5015115;28;20025;-63
2022/04/03 01:34:40;;;;;;;7.00;4.60;;;1.40;99.90;;;;;;5013918;28;20022;-63
2022/04/03 01:37:06;;;;;;;8.85;4.93;;;1.30;99.90;;;;;;5015399;28;20029;-63
2022/04/03 01:39:32;;;;;;;7.97;4.63;;;1.20;99.90;;;;;;5015854;28;20036;-63
2022/04/03 01:41:57;;;;;;;10.55;5.35;;;1.20;99.90;;;;;;5015629;28;20029;-63
2022/04/03 01:44:23;;;;;;;10.65;4.70;;;1.20;99.90;;;;;;5015340;28;20026;-63
2022/04/03 01:46:49;;;;;;;10.45;4.78;;;1.10;99.90;;;;;;5015583;28;20017;-63
2022/04/03 01:49:15;;;;;;;11.38;4.82;;;1.20;99.90;;;;;;5014072;28;20026;-63
2022/04/03 01:51:40;;;;;;;10.50;4.68;;;1.10;99.90;;;;;;5014342;28;20022;-63
2022/04/03 01:54:06;;;;;;;13.68;5.25;;;1.20;99.90;;;;;;5014257;28;20090;-63
2022/04/03 01:56:34;;;;;;;12.02;5.05;;;1.20;99.90;;;;;;5013884;28;20018;-63
2022/04/03 01:59:01;;;;;;;11.63;4.65;;;1.20;99.90;;;;;;5013859;28;20093;-63
2022/04/03 02:01:28;;;;;;;8.00;4.85;;;1.10;99.90;;;;;;5013924;28;20036;-63
2022/04/03 02:03:54;;;;;;;10.90;5.07;;;1.10;99.90;;;;;;5014025;28;20033;-63
2022/04/03 02:06:20;;;;;;;10.05;4.78;;;1.00;99.90;;;;;;5014794;28;20026;-63
2022/04/03 02:08:45;;;;;;;11.18;4.65;;;1.00;99.90;;;;;;5015178;28;20041;-63
2022/04/03 02:11:11;;;;;;;10.52;4.55;;;1.00;99.90;;;;;;5013856;28;20026;-63
2022/04/03 02:13:37;;;;;;;8.85;3.95;;;0.90;99.90;;;;;;5013643;28;20112;-63
2022/04/03 02:16:03;;;;;;;8.90;4.00;;;1.00;99.90;;;;;;5014845;28;20088;-63
2022/04/03 02:18:28;;;;;;;6.82;3.90;;;1.00;99.90;;;;;;5014762;28;20029;-63
2022/04/03 02:20:54;;;;;;;8.15;3.53;;;1.20;99.90;;;;;;5013399;28;20029;-63
2022/04/03 02:23:19;;;;;;;8.63;4.07;;;1.10;99.90;;;;;;5014682;28;20018;-63
2022/04/03 02:25:46;;;;;;;9.05;3.95;;;1.10;99.90;;;;;;5013651;28;20026;-63
2022/04/03 02:28:12;;;;;;;5.38;3.30;;;0.90;99.90;;;;;;5013036;28;20018;-63
2022/04/03 02:30:38;;;;;;;10.77;3.33;;;0.90;99.90;;;;;;5014130;28;20080;-63
2022/04/03 02:33:04;;;;;;;7.82;3.42;;;0.80;99.90;;;;;;5013842;28;20022;-63
2022/04/03 02:35:29;;;;;;;7.45;3.30;;;0.80;99.90;;;;;;5014102;28;20539;-63
2022/04/03 02:37:55;;;;;;;4.30;2.72;;;0.80;99.90;;;;;;5014364;28;20018;-63
2022/04/03 02:40:21;;;;;;;4.57;2.67;;;0.80;99.90;;;;;;5012984;28;20022;-63
2022/04/03 02:42:46;;;;;;;7.97;3.42;;;0.70;99.90;;;;;;5013335;28;20034;-63
2022/04/03 02:45:13;;;;;;;4.65;2.97;;;0.70;99.90;;;;;;5014542;28;20097;-63
2022/04/03 02:47:38;;;;;;;7.28;3.17;;;0.70;99.90;;;;;;5012971;28;20025;-63
2022/04/03 02:50:06;;;;;;;6.38;3.03;;;0.70;99.90;;;;;;5013260;28;20121;-63
2022/04/03 02:52:31;;;;;;;5.95;3.17;;;0.70;99.90;;;;;;5012870;28;20048;-63
2022/04/03 02:54:57;;;;;;;3.95;2.70;;;0.60;99.90;;;;;;5014455;28;20464;-63
2022/04/03 02:57:23;;;;;;;4.75;3.17;;;0.60;99.90;;;;;;5002422;28;20077;-63
2022/04/03 02:59:49;;;;;;;5.15;3.00;;;0.60;99.90;;;;;;4993560;28;20503;-63
2022/04/03 03:02:14;;;;;;;6.05;3.10;;;0.60;99.90;;;;;;4995479;28;20040;-64
2022/04/03 03:04:40;;;;;;;3.28;2.53;;;0.50;99.90;;;;;;4994642;28;20027;-63
2022/04/03 03:07:12;;;;;;;7.82;2.58;;;0.50;99.90;;;;;;4993247;28;20056;-63
2022/04/03 03:09:37;;;;;;;3.58;2.08;;;0.50;99.90;;;;;;4994497;28;20018;-63
2022/04/03 03:12:05;;;;;;;4.38;2.70;;;0.50;99.90;;;;;;4992971;28;20033;-63
2022/04/03 03:14:30;;;;;;;7.85;2.60;;;0.50;99.90;;;;;;4994310;28;20078;-63
2022/04/03 03:16:56;;;;;;;6.00;2.30;;;0.50;99.90;;;;;;4994308;28;20428;-63
2022/04/03 03:19:22;;;;;;;3.47;2.33;;;0.60;99.90;;;;;;4992889;28;20030;-63
2022/04/03 03:21:48;;;;;;;3.97;2.45;;;0.40;99.90;;;;;;4992739;28;20034;-63
2022/04/03 03:24:15;;;;;;;3.78;2.00;;;0.30;99.90;;;;;;4992845;28;20022;-63
2022/04/03 03:26:41;;;;;;;5.28;2.30;;;0.30;99.90;;;;;;4993676;28;20026;-63
2022/04/03 03:29:08;;;;;;;3.95;2.10;;;0.40;99.90;;;;;;4993450;28;20028;-63
2022/04/03 03:31:34;;;;;;;5.93;2.40;;;0.40;99.90;;;;;;4993881;28;20022;-63
2022/04/03 03:34:00;;;;;;;2.97;1.90;;;0.40;99.90;;;;;;4992806;28;20030;-63
2022/04/03 03:36:25;;;;;;;5.53;2.10;;;0.40;99.90;;;;;;4992708;28;20018;-63
2022/04/03 03:38:51;;;;;;;5.18;2.00;;;0.30;99.90;;;;;;4992668;28;20033;-64
2022/04/03 03:41:17;;;;;;;4.05;2.25;;;0.30;99.90;;;;;;4993675;28;20064;-63
2022/04/03 03:43:43;;;;;;;3.30;1.98;;;0.30;99.90;;;;;;4993946;28;20037;-63
2022/04/03 03:46:09;;;;;;;6.28;2.40;;;0.30;99.90;;;;;;4992568;28;20033;-63
2022/04/03 03:48:35;;;;;;;3.08;1.83;;;0.30;99.90;;;;;;4992522;28;20026;-63
2022/04/03 03:51:02;;;;;;;6.15;2.35;;;0.20;99.90;;;;;;4992590;28;20117;-63
2022/04/03 03:53:29;;;;;;;4.57;2.25;;;0.20;99.90;;;;;;4992624;28;20065;-63
2022/04/03 03:55:54;;;;;;;4.00;2.40;;;0.10;99.90;;;;;;4992490;28;20030;-63
2022/04/03 03:58:20;;;;;;;9.43;2.20;;;0.10;99.90;;;;;;4993732;28;20022;-63
2022/04/03 04:00:46;;;;;;;3.38;1.90;;;0.10;99.90;;;;;;4993823;28;20499;-63
2022/04/03 04:03:12;;;;;;;7.72;2.22;;;-0.10;99.90;;;;;;4992500;28;20061;-63
2022/04/03 04:05:38;;;;;;;3.88;2.05;;;-0.10;99.90;;;;;;4992753;28;20033;-63
2022/04/03 04:08:04;;;;;;;3.00;1.70;;;0.00;99.90;;;;;;4992462;28;20018;-63
2022/04/03 04:10:30;;;;;;;7.80;1.95;;;-0.10;99.90;;;;;;4992152;28;20022;-63
2022/04/03 04:12:55;;;;;;;5.95;2.55;;;-0.10;99.90;;;;;;4993622;28;20018;-63
2022/04/03 04:15:21;;;;;;;3.45;2.10;;;-0.10;99.90;;;;;;4993588;28;20030;-64
2022/04/03 04:17:48;;;;;;;4.93;2.15;;;-0.10;99.90;;;;;;4992460;28;20113;-63
2022/04/03 04:20:16;;;;;;;4.35;1.77;;;-0.20;99.90;;;;;;4992539;28;20544;-63
2022/04/03 04:22:44;;;;;;;6.32;1.83;;;-0.20;99.90;;;;;;4992300;28;20026;-63
2022/04/03 04:25:16;;;;;;;5.28;2.38;;;-0.30;99.90;;;;;;4992384;28;20469;-63
2022/04/03 04:27:43;;;;;;;3.83;2.20;;;-0.40;99.90;;;;;;4993605;28;20022;-63
2022/04/03 04:30:10;;;;;;;3.45;1.98;;;-0.40;99.90;;;;;;4993425;28;20031;-63
2022/04/03 04:32:36;;;;;;;4.82;2.35;;;-0.40;99.90;;;;;;4993674;28;20027;-63
2022/04/03 04:35:03;;;;;;;7.07;2.28;;;-0.40;99.90;;;;;;4992269;28;20065;-62
2022/04/03 04:37:29;;;;;;;8.68;2.30;;;-0.50;99.90;;;;;;4993710;28;20050;-63
2022/04/03 04:39:56;;;;;;;3.90;2.08;;;-0.50;99.90;;;;;;4992149;28;20061;-63
2022/04/03 04:42:22;;;;;;;7.00;2.95;;;-0.50;99.90;;;;;;4994996;28;20117;-63
2022/04/03 04:44:48;;;;;;;10.40;3.80;;;-0.50;99.90;;;;;;4997304;28;20036;-63
2022/04/03 04:47:14;;;;;;;8.63;2.58;;;-0.50;99.90;;;;;;4997210;28;20101;-63
2022/04/03 04:49:40;;;;;;;4.18;2.05;;;-0.50;99.90;;;;;;4996746;28;20101;-64
2022/04/03 04:52:06;;;;;;;7.53;3.20;;;-0.50;99.90;;;;;;4995857;28;20113;-64
2022/04/03 04:54:31;;;;;;;5.18;2.42;;;-0.60;99.90;;;;;;4995498;28;20094;-64
2022/04/03 04:56:58;;;;;;;3.45;1.90;;;-0.50;99.90;;;;;;4996499;28;20069;-64
2022/04/03 04:59:24;;;;;;;9.77;3.15;;;-0.50;99.90;;;;;;4995800;28;20058;-64
2022/04/03 05:01:50;;;;;;;7.22;2.95;;;-0.50;99.90;;;;;;4995297;28;20034;-64
2022/04/03 05:04:15;;;;;;;4.32;2.10;;;-0.50;99.90;;;;;;4995338;28;20057;-64
2022/04/03 05:06:42;;;;;;;3.08;2.00;;;-0.50;99.90;;;;;;4996514;28;20030;-64
2022/04/03 05:09:08;;;;;;;5.90;2.78;;;-0.50;99.90;;;;;;4995205;28;20057;-64
2022/04/03 05:11:34;;;;;;;2.83;2.08;;;-0.50;99.90;;;;;;4996494;28;20018;-64
2022/04/03 05:14:00;;;;;;;5.10;1.95;;;-0.40;99.90;;;;;;4995487;28;20035;-64
2022/04/03 05:16:26;;;;;;;3.42;2.08;;;-0.40;99.90;;;;;;4994976;28;20165;-64
2022/04/03 05:18:55;;;;;;;6.65;2.53;;;-0.40;99.90;;;;;;4995636;28;20026;-64
2022/04/03 05:21:22;;;;;;;4.30;2.10;;;-0.40;99.90;;;;;;4994949;28;20117;-64
2022/04/03 05:23:49;;;;;;;6.90;2.88;;;-0.10;99.90;;;;;;4996146;28;20022;-64
2022/04/03 05:26:16;;;;;;;8.52;2.50;;;0.30;99.90;;;;;;4994944;28;20030;-64
2022/04/03 05:28:42;;;;;;;4.25;2.17;;;0.90;99.90;;;;;;4996345;28;20029;-64
2022/04/03 05:31:07;;;;;;;4.03;2.00;;;1.30;99.90;;;;;;4994715;28;20076;-64
2022/04/03 05:33:33;;;;;;;5.95;2.65;;;1.70;99.90;;;;;;4996022;28;20014;-64
2022/04/03 05:35:58;;;;;;;6.38;2.65;;;2.30;99.90;;;;;;4996328;28;20026;-64
2022/04/03 05:38:24;;;;;;;6.15;3.13;;;2.80;99.90;;;;;;4994748;28;20026;-64
2022/04/03 05:40:50;;;;;;;7.63;2.60;;;3.40;99.90;;;;;;4994622;28;20022;-63
2022/04/03 05:43:15;;;;;;;5.22;2.63;;;4.00;99.90;;;;;;4996061;28;20029;-64
2022/04/03 05:45:42;;;;;;;6.40;2.80;;;4.60;99.90;;;;;;4996100;28;20022;-64
2022/04/03 05:48:08;;;;;;;4.65;2.38;;;5.10;99.90;;;;;;4994578;28;20022;-64
2022/04/03 05:50:35;;;;;;;6.15;2.38;;;5.60;99.90;;;;;;4994288;28;20026;-64
2022/04/03 05:53:01;;;;;;;2.45;1.90;;;5.90;99.90;;;;;;4994089;28;20381;-64
2022/04/03 05:55:26;;;;;;;4.68;2.50;;;6.20;99.90;;;;;;4995284;28;20077;-63
2022/04/03 05:57:53;;;;;;;4.00;2.72;;;6.60;99.90;;;;;;4996033;28;20547;-64
2022/04/03 06:00:21;;;;;;;5.72;2.80;;;7.20;99.90;;;;;;4995377;28;20030;-64
2022/04/03 06:02:54;;;;;;;3.95;2.17;;;7.70;99.90;;;;;;4994584;28;20030;-64
2022/04/03 06:05:25;;;;;;;3.67;2.45;;;8.10;99.90;;;;;;4994494;28;20085;-64
2022/04/03 06:07:51;;;;;;;7.53;3.17;;;8.60;99.90;;;;;;4994826;28;20033;-64
2022/04/03 06:10:19;;;;;;;5.43;2.40;;;8.80;99.90;;;;;;4994041;28;20030;-64
2022/04/03 06:13:07;;;;;;;3.90;2.70;;;8.50;99.90;;;;;;4995679;28;20050;-64
2022/04/03 06:15:34;;;;;;;3.95;2.53;;;8.10;99.90;;;;;;4995662;28;20053;-64
2022/04/03 06:18:01;;;;;;;3.08;2.25;;;8.10;99.90;;;;;;4995125;28;20018;-64
2022/04/03 06:20:27;;;;;;;3.03;2.05;;;8.40;99.90;;;;;;4993862;28;20416;-61
2022/04/03 06:22:53;;;;;;;4.88;2.63;;;9.00;99.90;;;;;;4995201;28;20026;-61
2022/04/03 06:25:20;;;;;;;4.53;2.70;;;9.60;99.90;;;;;;4995413;28;20081;-62
2022/04/03 06:27:46;;;;;;;5.57;2.88;;;10.20;99.90;;;;;;4994628;28;20040;-62
2022/04/03 06:30:12;;;;;;;7.07;2.63;;;10.90;98.70;;;;;;4993631;28;20031;-61
2022/04/03 06:32:38;;;;;;;5.80;2.55;;;11.50;97.60;;;;;;4995193;28;20019;-62
2022/04/03 06:35:04;;;;;;;7.32;2.80;;;12.40;95.30;;;;;;4995046;28;20018;-62
2022/04/03 06:37:30;;;;;;;7.82;4.70;;;13.00;93.20;;;;;;4993891;28;20093;-62
2022/04/03 06:39:56;;;;;;;4.57;2.17;;;13.60;90.00;;;;;;4993581;28;20026;-62
2022/04/03 06:42:21;;;;;;;3.70;2.22;;;13.80;90.10;;;;;;4994712;28;20019;-62
2022/04/03 06:44:47;;;;;;;6.45;4.38;;;14.50;87.50;;;;;;4993750;28;20030;-62
2022/04/03 06:47:13;;;;;;;28.20;14.60;;;14.90;79.50;;;;;;4993743;28;20023;-62
2022/04/03 06:49:40;;;;;;;22.10;12.80;;;15.30;79.00;;;;;;4993572;28;20036;-60
2022/04/03 06:52:08;;;;;;;14.77;9.40;;;14.90;77.00;;;;;;4993323;28;20030;-61
2022/04/03 06:54:34;;;;;;;47.85;28.80;;;15.20;77.40;;;;;;4993305;28;20113;-60
2022/04/03 06:57:18;;;;;;;46.70;24.67;;;15.30;72.10;;;;;;4997066;28;20156;-60
2022/04/03 06:59:44;;;;;;;21.60;13.30;;;15.60;70.50;;;;;;5014185;28;20096;-61
2022/04/03 07:02:10;;;;;;;6.35;3.42;;;16.00;69.20;;;;;;5014323;28;20132;-60
2022/04/03 07:04:36;;;;;;;8.93;5.50;;;16.80;67.10;;;;;;5013854;28;20033;-61
2022/04/03 07:07:03;;;;;;;8.73;6.35;;;17.40;67.70;;;;;;5012739;28;20109;-60
2022/04/03 07:09:29;;;;;;;6.53;3.90;;;18.30;67.30;;;;;;5014462;28;20102;-59
2022/04/03 07:11:54;;;;;;;12.70;9.30;;;18.20;61.40;;;;;;5013814;28;20045;-60
2022/04/03 07:14:20;;;;;;;8.48;5.80;;;18.50;65.00;;;;;;5012726;28;20033;-61
2022/04/03 07:16:46;;;;;;;16.98;9.77;;;19.10;59.50;;;;;;5012667;28;20022;-61
2022/04/03 07:19:12;;;;;;;15.02;10.02;;;18.80;56.70;;;;;;5012470;28;20045;-59
2022/04/03 07:21:37;;;;;;;3.78;2.65;;;19.00;56.90;;;;;;5018003;28;20030;-62
2022/04/03 07:24:06;;;;;;;5.38;2.05;;;18.60;58.40;;;;;;5014061;28;20034;-62
2022/04/03 07:26:33;;;;;;;3.88;2.05;;;19.60;56.70;;;;;;5012957;28;20076;-62
2022/04/03 07:28:59;;;;;;;2.50;1.33;;;19.80;54.10;;;;;;5012467;28;20032;-62
2022/04/03 07:31:25;;;;;;;1.92;1.55;;;19.70;53.20;;;;;;5012412;28;20040;-61
2022/04/03 07:33:51;;;;;;;2.95;2.00;;;19.30;52.00;;;;;;5012417;28;20115;-61
2022/04/03 07:36:17;;;;;;;7.78;3.28;;;17.80;51.60;;;;;;5013545;28;20097;-61
2022/04/03 07:38:43;;;;;;;2.92;1.88;;;16.40;56.30;;;;;;5012681;28;20021;-61
2022/04/03 07:41:09;;;;;;;2.75;1.60;;;15.90;53.50;;;;;;5012645;28;20487;-61
2022/04/03 07:43:34;;;;;;;3.13;1.98;;;16.20;63.20;;;;;;5012418;28;20022;-61
2022/04/03 07:46:00;;;;;;;2.28;1.52;;;16.00;52.60;;;;;;5013731;28;20021;-61
2022/04/03 07:48:48;;;;;;;1.70;1.48;;;15.30;58.30;;;;;;5012094;28;20500;-61
2022/04/03 07:51:14;;;;;;;2.25;1.63;;;15.60;56.20;;;;;;5012136;28;20030;-61
2022/04/03 07:53:40;;;;;;;4.47;2.17;;;16.10;58.40;;;;;;5012186;28;20057;-61
2022/04/03 07:56:06;;;;;;;3.60;2.17;;;15.70;53.20;;;;;;5012001;28;20033;-61
2022/04/03 07:58:33;;;;;;;3.45;1.77;;;15.50;54.80;;;;;;5012405;28;20071;-61
2022/04/03 08:01:00;;;;;;;2.85;1.40;;;15.70;56.50;;;;;;5013137;28;20038;-61
2022/04/03 08:03:26;;;;;;;3.85;1.92;;;16.80;55.60;;;;;;5013629;28;20030;-62
2022/04/03 08:05:53;;;;;;;4.00;1.80;;;18.10;56.80;;;;;;5012484;28;20503;-62
2022/04/03 08:08:19;;;;;;;4.22;1.85;;;18.40;50.90;;;;;;5013651;28;20022;-61
2022/04/03 08:10:44;;;;;;;3.38;1.55;;;18.00;51.30;;;;;;5012241;28;20117;-61
2022/04/03 08:13:10;;;;;;;4.47;2.15;;;17.80;50.40;;;;;;5013280;28;20053;-61
2022/04/03 08:15:36;;;;;;;3.17;2.15;;;18.10;52.40;;;;;;5013511;28;20097;-61
2022/04/03 08:18:01;;;;;;;2.03;1.60;;;17.80;52.70;;;;;;5017323;28;20057;-61
2022/04/03 08:20:27;;;;;;;2.40;1.40;;;18.10;52.80;;;;;;5017072;28;20030;-61
2022/04/03 08:22:53;;;;;;;2.90;1.58;;;18.30;52.50;;;;;;5015747;28;20374;-61
2022/04/03 08:25:18;;;;;;;4.22;2.10;;;18.30;49.80;;;;;;5016998;28;20026;-62
2022/04/03 08:27:47;;;;;;;6.63;2.35;;;17.90;50.10;;;;;;5015759;28;20026;-61
2022/04/03 08:30:16;;;;;;;2.30;1.70;;;17.60;53.30;;;;;;5016361;28;20026;-61
2022/04/03 08:32:42;;;;;;;3.08;1.60;;;17.30;53.90;;;;;;5015537;28;20022;-61
2022/04/03 08:35:09;;;;;;;5.80;1.40;;;16.30;49.50;;;;;;5015800;28;20018;-61
2022/04/03 08:37:35;;;;;;;3.10;1.98;;;14.40;49.60;;;;;;5015466;28;20068;-60
2022/04/03 08:40:03;;;;;;;3.65;2.15;;;13.80;52.70;;;;;;5016065;28;20056;-61
2022/04/03 08:42:29;;;;;;;1.50;1.27;;;15.00;52.90;;;;;;5015660;28;20048;-60
2022/04/03 08:44:56;;;;;;;1.77;1.55;;;15.70;56.80;;;;;;5016580;28;20018;-61
2022/04/03 08:47:26;;;;;;;4.63;4.13;;;15.90;54.30;;;;;;5015551;28;20026;-60
2022/04/03 08:50:02;;;;;;;3.30;2.70;;;15.90;53.90;;;;;;5015158;28;20395;-60
2022/04/03 08:52:31;;;;;;;1.83;1.30;;;16.30;54.30;;;;;;5015283;28;20021;-60
2022/04/03 08:54:58;;;;;;;2.38;1.20;;;16.20;52.90;;;;;;5015050;28;20030;-60
2022/04/03 08:57:24;;;;;;;5.18;1.67;;;15.70;52.60;;;;;;5016466;28;20026;-60
2022/04/03 08:59:51;;;;;;;2.53;1.60;;;15.30;49.50;;;;;;5015149;28;20088;-62
2022/04/03 09:02:17;;;;;;;3.25;1.65;;;15.00;50.20;;;;;;5015340;28;20084;-60
2022/04/03 09:04:43;;;;;;;2.83;1.75;;;15.20;49.60;;;;;;5016208;28;20022;-60
2022/04/03 09:07:19;;;;;;;3.80;1.88;;;16.60;53.00;;;;;;5014970;28;20033;-63
2022/04/03 09:09:46;;;;;;;3.28;1.40;;;18.80;47.90;;;;;;5016232;28;20113;-61
2022/04/03 09:12:18;;;;;;;1.95;1.50;;;19.70;46.50;;;;;;5016159;28;20130;-63
2022/04/03 09:14:52;;;;;;;2.67;1.67;;;20.90;45.40;;;;;;5015720;28;20018;-61
2022/04/03 09:17:42;;;;;;;7.63;4.72;;;22.10;43.00;;;;;;5032237;28;20396;-62
2022/04/03 09:20:10;;;;;;;1.97;1.57;;;23.10;40.70;;;;;;5015022;28;20026;-62
2022/04/03 09:22:37;;;;;;;3.03;2.35;;;22.40;37.70;;;;;;5015867;28;20026;-62
2022/04/03 09:25:10;;;;;;;4.00;1.80;;;20.90;38.40;;;;;;5015878;28;20029;-61
2022/04/03 09:27:54;;;;;;;2.88;1.95;;;19.80;40.40;;;;;;5014790;28;20449;-61
2022/04/03 09:30:29;;;;;;;3.45;1.98;;;19.20;41.00;;;;;;5014492;28;20416;-62
2022/04/03 09:32:56;;;;;;;3.35;2.20;;;20.30;41.60;;;;;;5014444;28;20026;-62
2022/04/03 09:35:52;;;;;;;1.90;1.80;;;21.80;39.30;;;;;;5014413;28;20033;-61
2022/04/03 09:38:18;;;;;;;2.30;1.85;;;21.10;37.90;;;;;;5015894;28;20353;-61
2022/04/03 09:40:47;;;;;;;2.13;1.70;;;20.60;45.20;;;;;;5015541;28;20104;-61
2022/04/03 09:43:22;;;;;;;1.83;1.40;;;20.20;40.70;;;;;;5014315;28;20049;-61
2022/04/03 09:46:04;;;;;;;2.33;1.80;;;20.50;39.70;;;;;;5030754;28;20048;-61
2022/04/03 09:48:34;;;;;;;4.32;1.75;;;21.70;42.80;;;;;;5014360;28;20026;-61
2022/04/03 09:51:02;;;;;;;3.90;1.70;;;21.40;37.40;;;;;;5015394;28;20029;-61
2022/04/03 09:53:29;;;;;;;1.98;1.55;;;20.80;41.00;;;;;;5015378;28;20022;-61
2022/04/03 09:55:55;;;;;;;1.70;1.52;;;21.10;40.10;;;;;;5015628;28;20041;-61
2022/04/03 09:58:22;;;;;;;2.25;1.98;;;20.50;38.20;;;;;;5015506;28;20022;-61
2022/04/03 10:00:47;;;;;;;1.60;1.50;;;19.40;39.00;;;;;;5014543;28;20022;-59
2022/04/03 10:03:14;;;;;;;4.25;1.73;;;18.00;38.90;;;;;;5013296;28;20030;-60
2022/04/03 10:05:42;;;;;;;2.15;1.40;;;17.50;42.90;;;;;;5012385;28;20029;-59
2022/04/03 10:08:08;;;;;;;2.38;1.70;;;16.60;43.00;;;;;;5012882;28;20026;-58
2022/04/03 10:10:35;;;;;;;2.10;1.70;;;16.00;41.20;;;;;;5012999;28;20030;-59
2022/04/03 10:13:02;;;;;;;1.77;1.30;;;15.70;41.10;;;;;;5013674;28;20018;-59
2022/04/03 10:15:29;;;;;;;2.30;1.20;;;15.40;42.50;;;;;;5014095;28;20060;-58
2022/04/03 10:17:55;;;;;;;6.07;1.55;;;14.10;44.20;;;;;;5013552;28;20026;-59
2022/04/03 10:20:25;;;;;;;2.58;1.13;;;14.00;43.80;;;;;;5013419;28;20029;-62
2022/04/03 10:22:56;;;;;;;1.95;1.65;;;12.90;44.60;;;;;;5013602;28;20030;-59
2022/04/03 10:25:29;;;;;;;2.42;1.38;;;12.80;46.30;;;;;;5014738;28;20366;-59
2022/04/03 10:28:02;;;;;;;2.85;1.00;;;12.20;46.30;;;;;;5013841;28;20083;-58
2022/04/03 10:30:45;;;;;;;6.43;1.33;;;11.70;45.90;;;;;;5014462;28;20037;-61
2022/04/03 10:33:19;;;;;;;1.40;1.30;;;10.60;49.20;;;;;;5014651;28;20018;-62
2022/04/03 10:36:09;;;;;;;2.90;2.03;;;10.60;48.70;;;;;;5014815;28;20029;-59
2022/04/03 10:38:43;;;;;;;3.78;1.40;;;10.70;49.10;;;;;;5013580;28;20037;-61
2022/04/03 10:41:35;;;;;;;2.88;1.30;;;10.60;50.30;;;;;;5014539;28;20062;-59
2022/04/03 10:44:16;;;;;;;2.50;1.30;;;10.90;50.30;;;;;;5013331;28;20022;-59
2022/04/03 10:47:03;;;;;;;2.58;1.23;;;10.60;48.50;;;;;;5013484;28;20022;-57
2022/04/03 10:49:58;;;;;;;3.42;1.13;;;10.40;49.80;;;;;;5014193;28;20025;-59
2022/04/03 10:52:43;;;;;;;1.55;1.20;;;10.10;50.10;;;;;;5012888;28;20057;-58
2022/04/03 10:55:21;;;;;;;1.63;1.05;;;10.20;50.80;;;;;;5012416;28;20068;-58
2022/04/03 10:57:53;;;;;;;6.13;2.97;;;10.50;51.40;;;;;;5014125;28;20383;-59
2022/04/03 11:00:19;;;;;;;2.40;1.38;;;10.70;53.40;;;;;;5012957;28;20032;-59
2022/04/03 11:02:58;;;;;;;5.57;1.67;;;11.20;53.70;;;;;;5012771;28;20038;-58
2022/04/03 11:05:27;;;;;;;4.57;1.38;;;11.50;52.30;;;;;;5012893;28;20030;-59
2022/04/03 11:07:58;;;;;;;2.65;1.50;;;11.50;49.60;;;;;;5014194;28;20022;-60
2022/04/03 11:10:46;;;;;;;1.70;1.20;;;10.60;47.90;;;;;;5012791;28;20468;-58
2022/04/03 11:13:15;;;;;;;2.00;1.27;;;10.50;56.00;;;;;;5012498;28;20036;-60
2022/04/03 11:15:56;;;;;;;2.40;1.40;;;10.90;54.70;;;;;;5012615;28;20021;-59
2022/04/03 11:18:41;;;;;;;1.95;1.52;;;11.00;52.70;;;;;;5013871;28;20033;-58
2022/04/03 11:21:30;;;;;;;2.20;1.25;;;11.40;54.90;;;;;;5013361;28;20022;-60
2022/04/03 11:24:15;;;;;;;1.98;1.30;;;11.40;53.80;;;;;;5012823;28;20030;-60
2022/04/03 11:26:42;;;;;;;2.05;1.20;;;11.60;54.90;;;;;;5012959;28;20032;-60
2022/04/03 11:29:10;;;;;;;2.03;1.02;;;11.70;57.50;;;;;;5012621;28;20080;-60
2022/04/03 11:31:36;;;;;;;3.92;1.90;;;11.90;56.20;;;;;;5013585;28;20018;-60
2022/04/03 11:34:02;;;;;;;1.65;1.17;;;12.00;53.90;;;;;;5012373;28;20117;-60
2022/04/03 11:36:30;;;;;;;0.90;0.85;;;11.80;52.90;;;;;;5013611;28;20153;-59
2022/04/03 11:38:56;;;;;;;1.77;0.80;;;12.00;58.90;;;;;;5013892;28;20101;-60
2022/04/03 11:41:28;;;;;;;2.53;1.95;;;12.00;51.00;;;;;;5012202;28;20080;-60
2022/04/03 11:44:09;;;;;;;3.05;1.40;;;11.20;50.80;;;;;;5013080;28;20133;-60
2022/04/03 11:46:37;;;;;;;1.23;1.08;;;10.60;53.60;;;;;;5013594;28;20030;-60
2022/04/03 11:49:13;;;;;;;1.13;1.02;;;10.60;54.00;;;;;;5013455;28;20033;-59
2022/04/03 11:51:39;;;;;;;2.55;1.50;;;11.00;59.30;;;;;;5014055;28;20030;-60
2022/04/03 11:54:04;;;;;;;1.80;1.25;;;11.20;55.60;;;;;;5017547;28;20168;-60
2022/04/03 11:56:35;;;;;;;1.60;1.35;;;11.40;56.50;;;;;;5016162;28;20065;-60
2022/04/03 11:59:03;;;;;;;1.60;1.20;;;11.00;56.80;;;;;;5017695;28;20112;-60
2022/04/03 12:01:38;;;;;;;2.20;1.30;;;11.50;58.40;;;;;;5015978;28;20488;-60
2022/04/03 12:04:08;;;;;;;2.13;1.42;;;11.50;54.40;;;;;;5017195;28;20085;-60
2022/04/03 12:06:35;;;;;;;2.95;1.23;;;10.90;59.10;;;;;;5016419;28;20022;-59
2022/04/03 12:09:08;;;;;;;3.10;1.17;;;10.80;56.70;;;;;;5015885;28;20120;-58
2022/04/03 12:11:35;;;;;;;1.17;1.08;;;11.10;55.60;;;;;;5017474;28;20022;-59
2022/04/03 12:14:02;;;;;;;2.58;1.20;;;10.20;52.10;;;;;;5017128;28;20431;-59
2022/04/03 12:16:31;;;;;;;3.13;1.48;;;10.30;57.40;;;;;;5017121;28;20555;-59
2022/04/03 12:19:00;;;;;;;5.03;1.95;;;10.50;53.90;;;;;;5016330;28;20033;-61
2022/04/03 12:21:49;;;;;;;1.98;1.40;;;10.60;57.90;;;;;;5016899;28;20044;-60
2022/04/03 12:24:28;;;;;;;2.95;2.17;;;10.90;55.70;;;;;;5016355;28;20029;-56
2022/04/03 12:27:00;;;;;;;2.55;1.30;;;11.00;55.40;;;;;;5016981;28;20049;-60
2022/04/03 12:29:31;;;;;;;2.65;1.52;;;11.30;58.90;;;;;;5016860;28;20030;-58
2022/04/03 12:32:05;;;;;;;3.13;1.23;;;11.60;56.60;;;;;;5016875;28;20034;-57
2022/04/03 12:34:33;;;;;;;3.30;1.77;;;11.80;55.90;;;;;;5015685;28;20025;-59
2022/04/03 12:37:00;;;;;;;1.60;1.30;;;11.80;60.10;;;;;;5015546;28;20476;-60
2022/04/03 12:39:45;;;;;;;6.30;1.48;;;12.00;55.50;;;;;;5015860;28;20044;-59
2022/04/03 12:42:22;;;;;;;2.60;1.83;;;11.70;52.00;;;;;;5015271;28;20057;-59
2022/04/03 12:44:51;;;;;;;2.05;1.30;;;11.40;52.80;;;;;;5015347;28;20025;-59
2022/04/03 12:47:23;;;;;;;1.65;1.50;;;11.00;56.70;;;;;;5017198;28;20056;-58
2022/04/03 12:50:29;;;;;;;1.55;1.00;;;11.20;54.80;;;;;;5015340;28;20392;-59
2022/04/03 12:52:57;;;;;;;1.35;1.23;;;11.60;56.20;;;;;;5002713;28;20033;-59
2022/04/03 13:00:42;;;;;;;2.30;1.30;;;12.00;56.90;;;;;;5016313;28;20975;-59